Detall de PIREP

Printer-friendly versionPDF version

[2013/09/14 15:52:00]
Flight IATA:CT1001
Pilot Number:012
Company ICAO:CAT
Aircraft Type:F28/A
PAX:85
Departing Airport: LICG
Destination Airport: LICD
Alternate Airport:DTTA
Online: VATSIM
Route:ROBET M740 LESMI
Flight Level:F110
No Slew and time accel
No pause
Crash detect
Detect pilot in Cockpit between each 30 and 45 minutes
15:52 Zero fuel Weight: 54411 Lbs, Fuel Weight: 5277 Lbs
15:52 VATSIM:LICG 141455Z /////KT CAVOK 26/20 Q1020
15:52 VATSIM:LICD 141450Z 01003KT 320V040 CAVOK 26/19 Q1020
15:52 VOICE CATALONIAN / MEDITERRANEAN ODYSSEY
15:58 Parking Brakes off
16:00 Take-off
16:00 Take off Weight: 59392 Lbs
16:00 Wind: 000º @ 000 Knots Heading: 028º
16:00 POS N36º 49´ 09´´ E011º 58´ 14´´
16:00 Gear Up: 136 Knots
16:00 Flaps:1 at 136 Knots
16:01 Flaps:0 at 178 Knots
16:05 TOC
16:05 Fuel Weight: 4276 Lb
16:15 Wind:292º@028 Knots Heading: 161º Ground Speed:383 Knots Altitude 11184 ft
16:16 TOD
16:16 Fuel Weight: 3280 Lb
16:21 Flaps:1 at 223 Knots
16:22 Flaps:2 at 189 Knots
16:22 Flaps:3 at 168 Knots
16:22 Gear Down: 167 Knots
16:22 Flaps:4 at 150 Knots
16:23 Flaps:5 at 128 Knots
16:27 TouchDown:Rate -199 ft/min Speed: 105 Knots
16:27 VATSIM:LICD 141550Z 01004KT 330V030 CAVOK 25/19 Q1020
16:27 Land
16:27 Wind:309º@003 Knots
16:27 Heading: 080º
16:27 Flight Duration: 00:27
16:27 Landing Weight: 57152 Lbs
16:27 POS N35º 29´ 50´´ E012º 37´ 13´´
16:29 Parking brakes on
16:29 Block to Block Duration: 00:31
16:29 Final Fuel: 2660 Lbls
16:29 Spent Fuel: 2616 Lbls
16:29 Flight Length: 128 NM
16:29 TOD Land Length: 39 NM

Exportar CSV

Powered by Drupal - Modified by Danger4k